Time;durP1;ratioP1;P1;durP2;ratioP2;P2;SDS_P1;SDS_P2;PMS_P1;PMS_P2;Temp;Humidity;BMP_temperature;BMP_pressure;BME280_temperature;BME280_humidity;BME280_pressure;Samples;Min_cycle;Max_cycle;Signal;HPM_P1;HPM_P2
2022/11/01 00:01:56;;;;;;;3.88;1.70;;;;;;;;;;6160317;23;20084;-91
2022/11/01 00:04:25;;;;;;;4.57;1.90;;;;;;;;;;6161305;23;20025;-91
2022/11/01 00:06:54;;;;;;;3.70;2.08;;;;;;;;;;6160571;23;20092;-90
2022/11/01 00:09:23;;;;;;;17.30;2.00;;;;;;;;;;6160751;23;20068;-93
2022/11/01 00:11:52;;;;;;;9.80;2.00;;;;;;;;;;6159809;23;20021;-90
2022/11/01 00:14:21;;;;;;;7.38;1.98;;;;;;;;;;6160493;23;20078;-90
2022/11/01 00:16:50;;;;;;;2.50;1.10;;;;;;;;;;6161085;23;20024;-93
2022/11/01 00:19:19;;;;;;;4.93;2.72;;;;;;;;;;6160473;23;20052;-90
2022/11/01 00:21:47;;;;;;;5.97;1.83;;;;;;;;;;6159990;23;20013;-89
2022/11/01 00:24:16;;;;;;;4.50;2.20;;;;;;;;;;6157932;23;20022;-91
2022/11/01 00:26:45;;;;;;;2.53;1.77;;;;;;;;;;6159902;23;20018;-90
2022/11/01 00:29:14;;;;;;;5.20;1.50;;;;;;;;;;6160947;23;20100;-90
2022/11/01 00:31:42;;;;;;;1.67;1.00;;;;;;;;;;6159765;23;20032;-90
2022/11/01 00:34:11;;;;;;;5.88;1.88;;;;;;;;;;6160694;23;20024;-90
2022/11/01 00:36:39;;;;;;;5.50;1.88;;;;;;;;;;6160696;23;20100;-90
2022/11/01 00:39:08;;;;;;;3.85;1.58;;;;;;;;;;6160995;23;20027;-92
2022/11/01 00:41:36;;;;;;;4.95;2.13;;;;;;;;;;6159988;23;20014;-90
2022/11/01 00:44:06;;;;;;;4.38;1.50;;;;;;;;;;6160306;23;20022;-90
2022/11/01 00:46:34;;;;;;;4.03;1.60;;;;;;;;;;6160727;23;20017;-89
2022/11/01 00:49:03;;;;;;;3.83;1.77;;;;;;;;;;6160976;23;20025;-90
2022/11/01 00:51:31;;;;;;;5.65;2.28;;;;;;;;;;6160001;23;20105;-90
2022/11/01 00:54:00;;;;;;;3.67;1.50;;;;;;;;;;6160145;23;20466;-90
2022/11/01 00:56:28;;;;;;;3.53;1.65;;;;;;;;;;6160777;23;20025;-90
2022/11/01 00:58:57;;;;;;;8.43;3.03;;;;;;;;;;6160748;23;20116;-90
2022/11/01 01:01:26;;;;;;;4.15;2.65;;;;;;;;;;6160034;23;20025;-90
2022/11/01 01:03:55;;;;;;;6.68;1.83;;;;;;;;;;6159783;23;20072;-91
2022/11/01 01:06:24;;;;;;;2.58;1.52;;;;;;;;;;6159465;23;20032;-90
2022/11/01 01:08:52;;;;;;;1.52;1.17;;;;;;;;;;6160946;23;20028;-91
2022/11/01 01:11:20;;;;;;;3.70;1.70;;;;;;;;;;6159556;23;20024;-90
2022/11/01 01:13:49;;;;;;;1.60;1.50;;;;;;;;;;6160458;23;20021;-91
2022/11/01 01:16:17;;;;;;;5.10;1.92;;;;;;;;;;6160965;23;20017;-90
2022/11/01 01:18:47;;;;;;;4.63;1.30;;;;;;;;;;6159379;23;20026;-90
2022/11/01 01:21:16;;;;;;;4.90;1.83;;;;;;;;;;6159490;23;20398;-90
2022/11/01 01:23:45;;;;;;;7.57;1.70;;;;;;;;;;6159589;23;20048;-90
2022/11/01 01:26:14;;;;;;;2.72;1.67;;;;;;;;;;6160777;23;20031;-90
2022/11/01 01:28:42;;;;;;;3.55;2.28;;;;;;;;;;6159822;23;20017;-90
2022/11/01 01:31:12;;;;;;;3.05;2.17;;;;;;;;;;6159995;23;20029;-90
2022/11/01 01:33:41;;;;;;;2.33;1.33;;;;;;;;;;6159805;23;20022;-91
2022/11/01 01:36:11;;;;;;;5.95;1.63;;;;;;;;;;6160685;23;20096;-90
2022/11/01 01:38:39;;;;;;;7.68;1.77;;;;;;;;;;6160582;23;20018;-91
2022/11/01 01:43:54;;;;;;;3.28;1.42;;;;;;;;;;6159373;23;20014;-91
2022/11/01 01:46:22;;;;;;;8.40;1.92;;;;;;;;;;6160930;23;20021;-90
2022/11/01 01:48:53;;;;;;;4.75;1.80;;;;;;;;;;6160674;23;20312;-90
2022/11/01 01:51:25;;;;;;;2.75;1.27;;;;;;;;;;6159154;23;20025;-90
2022/11/01 01:53:56;;;;;;;1.40;1.17;;;;;;;;;;6160096;23;20032;-90
2022/11/01 01:56:28;;;;;;;1.92;1.42;;;;;;;;;;6160310;23;20056;-90
2022/11/01 01:58:58;;;;;;;2.70;1.55;;;;;;;;;;6160399;23;20018;-90
2022/11/01 02:01:27;;;;;;;4.15;1.40;;;;;;;;;;6159267;23;20021;-90
2022/11/01 02:03:55;;;;;;;1.23;1.00;;;;;;;;;;6160240;23;20104;-90
2022/11/01 02:06:26;;;;;;;3.30;1.73;;;;;;;;;;6159698;23;20022;-90
2022/11/01 02:08:56;;;;;;;7.97;2.95;;;;;;;;;;6160188;23;20066;-90
2022/11/01 02:11:24;;;;;;;3.50;2.10;;;;;;;;;;6160245;23;20077;-90
2022/11/01 02:13:53;;;;;;;2.45;1.30;;;;;;;;;;6160327;23;20022;-90
2022/11/01 02:16:34;;;;;;;2.03;1.30;;;;;;;;;;6160297;23;20029;-91
2022/11/01 02:19:11;;;;;;;1.45;1.33;;;;;;;;;;6159897;23;20017;-91
2022/11/01 02:21:57;;;;;;;2.80;1.40;;;;;;;;;;6158502;23;20502;-91
2022/11/01 02:24:45;;;;;;;11.07;1.58;;;;;;;;;;6159911;23;20430;-91
2022/11/01 02:27:17;;;;;;;4.22;1.63;;;;;;;;;;6159811;23;20022;-91
2022/11/01 02:29:52;;;;;;;1.33;1.13;;;;;;;;;;6160893;23;20060;-90
2022/11/01 02:32:24;;;;;;;5.53;2.20;;;;;;;;;;6157959;23;20022;-90
2022/11/01 02:34:56;;;;;;;1.85;1.20;;;;;;;;;;6160277;23;20050;-91
2022/11/01 02:37:26;;;;;;;3.22;1.50;;;;;;;;;;6159795;23;20061;-90
2022/11/01 02:39:57;;;;;;;3.53;1.55;;;;;;;;;;6160057;23;20021;-89
2022/11/01 02:42:28;;;;;;;1.27;1.02;;;;;;;;;;6159680;23;20601;-91
2022/11/01 02:44:59;;;;;;;5.10;1.58;;;;;;;;;;6159700;23;20029;-91
2022/11/01 02:47:30;;;;;;;2.95;1.38;;;;;;;;;;6158750;23;20132;-91
2022/11/01 02:50:01;;;;;;;5.05;1.60;;;;;;;;;;6160156;23;20022;-91
2022/11/01 02:52:31;;;;;;;2.03;1.10;;;;;;;;;;6159410;23;20032;-92
2022/11/01 02:55:01;;;;;;;4.22;1.70;;;;;;;;;;6160654;23;20022;-90
2022/11/01 02:57:33;;;;;;;3.95;1.90;;;;;;;;;;6161170;23;20097;-90
2022/11/01 03:00:04;;;;;;;3.83;1.58;;;;;;;;;;6162157;23;20452;-91
2022/11/01 03:02:41;;;;;;;1.90;1.65;;;;;;;;;;6161076;23;20021;-90
2022/11/01 03:05:13;;;;;;;2.63;1.23;;;;;;;;;;6161197;23;20018;-91
2022/11/01 03:07:43;;;;;;;2.65;1.35;;;;;;;;;;6161741;23;20027;-90
2022/11/01 03:10:11;;;;;;;2.05;1.00;;;;;;;;;;6161464;23;20041;-91
2022/11/01 03:12:43;;;;;;;2.90;1.23;;;;;;;;;;6160396;23;20025;-90
2022/11/01 03:15:19;;;;;;;1.38;1.20;;;;;;;;;;6161863;23;20028;-91
2022/11/01 03:17:51;;;;;;;5.20;2.40;;;;;;;;;;6161779;23;20032;-90
2022/11/01 03:20:23;;;;;;;3.10;1.08;;;;;;;;;;6161050;23;20021;-91
2022/11/01 03:22:53;;;;;;;2.42;1.17;;;;;;;;;;6160451;23;20408;-90
2022/11/01 03:25:39;;;;;;;5.85;2.20;;;;;;;;;;6160943;23;20554;-89
2022/11/01 03:28:10;;;;;;;1.05;0.93;;;;;;;;;;6161343;23;20017;-92
2022/11/01 03:30:41;;;;;;;1.58;1.00;;;;;;;;;;6161826;23;20017;-91
2022/11/01 03:33:12;;;;;;;1.38;0.80;;;;;;;;;;6160578;23;20069;-90
2022/11/01 03:35:41;;;;;;;2.65;1.13;;;;;;;;;;6161161;23;20028;-90
2022/11/01 03:38:12;;;;;;;1.67;0.88;;;;;;;;;;6161227;23;20100;-91
2022/11/01 03:40:42;;;;;;;1.42;0.85;;;;;;;;;;6161196;23;20021;-91
2022/11/01 03:43:12;;;;;;;2.58;1.10;;;;;;;;;;6160379;23;20030;-92
2022/11/01 03:45:41;;;;;;;1.95;1.67;;;;;;;;;;6161190;23;20114;-90
2022/11/01 03:48:10;;;;;;;2.05;1.75;;;;;;;;;;6161337;23;20017;-91
2022/11/01 03:50:42;;;;;;;2.42;1.08;;;;;;;;;;6161332;23;20080;-93
2022/11/01 03:53:10;;;;;;;3.42;0.93;;;;;;;;;;6160697;23;20411;-91
2022/11/01 03:55:39;;;;;;;1.92;1.00;;;;;;;;;;6161420;23;20021;-90
2022/11/01 03:58:08;;;;;;;1.33;1.05;;;;;;;;;;6160661;23;20029;-91
2022/11/01 04:00:38;;;;;;;2.03;1.00;;;;;;;;;;6162729;23;20033;-92
2022/11/01 04:03:08;;;;;;;1.88;1.10;;;;;;;;;;6159852;23;20030;-90
2022/11/01 04:05:38;;;;;;;4.22;1.42;;;;;;;;;;6160766;23;20026;-91
2022/11/01 04:08:11;;;;;;;4.35;1.27;;;;;;;;;;6160075;23;20029;-91
2022/11/01 04:10:40;;;;;;;3.42;0.68;;;;;;;;;;6161355;23;20028;-91
2022/11/01 04:13:09;;;;;;;2.33;1.42;;;;;;;;;;6160253;23;20447;-90
2022/11/01 04:21:11;;;;;;;3.03;2.03;;;;;;;;;;6160259;23;20037;-90
2022/11/01 04:23:41;;;;;;;3.08;0.82;;;;;;;;;;6160515;23;20092;-91
2022/11/01 04:26:12;;;;;;;1.05;0.85;;;;;;;;;;6161256;23;20390;-89
2022/11/01 04:28:40;;;;;;;2.45;1.35;;;;;;;;;;6160517;23;20056;-91
2022/11/01 04:31:08;;;;;;;5.35;2.10;;;;;;;;;;6160720;23;20546;-91
2022/11/01 04:33:37;;;;;;;3.97;1.63;;;;;;;;;;6160825;23;20025;-91
2022/11/01 04:36:06;;;;;;;10.18;2.15;;;;;;;;;;6161382;23;20022;-90
2022/11/01 04:38:35;;;;;;;1.67;1.05;;;;;;;;;;6161056;23;20466;-90
2022/11/01 04:41:05;;;;;;;2.92;1.30;;;;;;;;;;6159821;23;20022;-90
2022/11/01 04:43:33;;;;;;;1.70;0.82;;;;;;;;;;6160248;23;20018;-91
2022/11/01 04:46:02;;;;;;;0.98;0.90;;;;;;;;;;6160837;23;20104;-91
2022/11/01 04:48:31;;;;;;;1.90;1.15;;;;;;;;;;6160037;23;20017;-90
2022/11/01 04:51:01;;;;;;;4.60;1.20;;;;;;;;;;6160054;23;20076;-91
2022/11/01 04:53:29;;;;;;;2.97;1.63;;;;;;;;;;6161224;23;20065;-90
2022/11/01 04:55:58;;;;;;;2.40;0.90;;;;;;;;;;6160731;23;20479;-91
2022/11/01 04:58:29;;;;;;;5.25;0.85;;;;;;;;;;6160738;23;20041;-92
2022/11/01 05:00:57;;;;;;;4.80;1.55;;;;;;;;;;6160428;23;20022;-90
2022/11/01 05:03:26;;;;;;;5.93;1.17;;;;;;;;;;6160336;23;20049;-90
2022/11/01 05:05:56;;;;;;;2.90;1.35;;;;;;;;;;6160449;23;20081;-90
2022/11/01 05:08:25;;;;;;;1.38;0.73;;;;;;;;;;6160950;23;20017;-91
2022/11/01 05:10:54;;;;;;;2.67;1.23;;;;;;;;;;6159633;23;20025;-91
2022/11/01 05:13:22;;;;;;;1.92;1.67;;;;;;;;;;6160789;23;20017;-90
2022/11/01 05:15:52;;;;;;;1.92;1.10;;;;;;;;;;6160389;23;20028;-91
2022/11/01 05:18:42;;;;;;;2.08;1.48;;;;;;;;;;6160250;23;20026;-91
2022/11/01 05:21:11;;;;;;;3.10;1.23;;;;;;;;;;6158443;23;20078;-91
2022/11/01 05:23:39;;;;;;;2.70;0.73;;;;;;;;;;6160770;23;20021;-92
2022/11/01 05:26:08;;;;;;;1.77;0.80;;;;;;;;;;6160775;23;20519;-93
2022/11/01 05:28:37;;;;;;;1.15;0.80;;;;;;;;;;6160915;23;20375;-90
2022/11/01 05:31:09;;;;;;;7.32;1.67;;;;;;;;;;6160354;23;20032;-90
2022/11/01 05:33:38;;;;;;;1.52;0.80;;;;;;;;;;6159959;23;20075;-91
2022/11/01 05:36:06;;;;;;;1.95;0.65;;;;;;;;;;6160061;23;20078;-90
2022/11/01 05:38:35;;;;;;;4.68;1.08;;;;;;;;;;6160247;23;20032;-90
2022/11/01 05:41:03;;;;;;;1.80;0.85;;;;;;;;;;6159375;23;20284;-90
2022/11/01 05:43:32;;;;;;;1.92;0.98;;;;;;;;;;6159688;23;20024;-91
2022/11/01 05:46:04;;;;;;;2.47;1.10;;;;;;;;;;6160300;23;20021;-91
2022/11/01 05:48:34;;;;;;;2.65;1.25;;;;;;;;;;6159788;23;20025;-92
2022/11/01 05:51:04;;;;;;;0.68;0.45;;;;;;;;;;6158841;23;22825;-91
2022/11/01 05:53:33;;;;;;;2.05;1.25;;;;;;;;;;6159406;23;20354;-91
2022/11/01 05:56:01;;;;;;;2.13;1.08;;;;;;;;;;6160433;23;20031;-91
2022/11/01 05:58:30;;;;;;;3.22;1.30;;;;;;;;;;6159204;23;20040;-90
2022/11/01 06:00:58;;;;;;;2.42;1.05;;;;;;;;;;6158989;23;20458;-90
2022/11/01 06:03:27;;;;;;;3.20;1.13;;;;;;;;;;6160562;23;20020;-90
2022/11/01 06:05:57;;;;;;;2.78;1.20;;;;;;;;;;6159384;23;20021;-90
2022/11/01 06:08:25;;;;;;;1.83;1.42;;;;;;;;;;6159456;23;20018;-90
2022/11/01 06:11:01;;;;;;;3.72;1.10;;;;;;;;;;6158071;23;20028;-91
2022/11/01 06:13:30;;;;;;;4.20;0.90;;;;;;;;;;6159095;23;20060;-90
2022/11/01 06:15:59;;;;;;;4.57;0.90;;;;;;;;;;6159556;23;20512;-91
2022/11/01 06:18:27;;;;;;;0.90;0.60;;;;;;;;;;6159077;23;20076;-91
2022/11/01 06:20:58;;;;;;;2.42;0.82;;;;;;;;;;6158399;23;20343;-91
2022/11/01 06:23:26;;;;;;;2.03;0.85;;;;;;;;;;6159398;23;20018;-90
2022/11/01 06:25:59;;;;;;;2.03;1.08;;;;;;;;;;6159430;23;20046;-90
2022/11/01 06:28:28;;;;;;;1.00;0.63;;;;;;;;;;6158537;23;20021;-91
2022/11/01 06:30:56;;;;;;;0.50;0.50;;;;;;;;;;6158764;23;20024;-90
2022/11/01 06:33:25;;;;;;;2.50;1.75;;;;;;;;;;6160627;23;20084;-91
2022/11/01 06:35:54;;;;;;;1.67;0.73;;;;;;;;;;6160356;23;20343;-91
2022/11/01 06:38:24;;;;;;;0.73;0.60;;;;;;;;;;6160506;23;20017;-92
2022/11/01 06:40:53;;;;;;;0.95;0.93;;;;;;;;;;6159717;23;20355;-91
2022/11/01 06:43:21;;;;;;;2.88;0.80;;;;;;;;;;6160695;23;20064;-93
2022/11/01 06:45:50;;;;;;;7.25;1.17;;;;;;;;;;6160481;23;20017;-91
2022/11/01 06:48:18;;;;;;;2.00;1.60;;;;;;;;;;6161205;23;20024;-92
2022/11/01 06:50:47;;;;;;;2.35;0.98;;;;;;;;;;6160374;23;20021;-91
2022/11/01 06:53:16;;;;;;;0.80;0.80;;;;;;;;;;6160519;23;20028;-90
2022/11/01 06:55:45;;;;;;;0.80;0.55;;;;;;;;;;6161225;23;20032;-90
2022/11/01 06:58:14;;;;;;;2.05;1.17;;;;;;;;;;6160528;23;20126;-90
2022/11/01 07:00:42;;;;;;;4.10;1.17;;;;;;;;;;6161001;23;20066;-90
2022/11/01 07:03:12;;;;;;;1.13;1.02;;;;;;;;;;6160535;23;20021;-93
2022/11/01 07:05:41;;;;;;;1.33;0.98;;;;;;;;;;6160346;23;20100;-91
2022/11/01 07:08:11;;;;;;;3.13;1.23;;;;;;;;;;6160424;23;20026;-92
2022/11/01 07:10:41;;;;;;;3.28;0.90;;;;;;;;;;6160548;23;20025;-91
2022/11/01 07:13:12;;;;;;;0.68;0.68;;;;;;;;;;6160092;23;20025;-91
2022/11/01 07:15:41;;;;;;;2.80;1.42;;;;;;;;;;6160387;23;20026;-91
2022/11/01 07:18:09;;;;;;;5.75;0.85;;;;;;;;;;6160189;23;20047;-91
2022/11/01 07:20:41;;;;;;;1.88;0.93;;;;;;;;;;6160192;23;20029;-92
2022/11/01 07:23:11;;;;;;;2.80;0.65;;;;;;;;;;6159566;23;20025;-91
2022/11/01 07:25:39;;;;;;;1.85;0.85;;;;;;;;;;6159916;23;20030;-91
2022/11/01 07:28:08;;;;;;;3.50;1.48;;;;;;;;;;6160765;23;20018;-91
2022/11/01 07:30:39;;;;;;;3.88;1.10;;;;;;;;;;6160813;23;20026;-92
2022/11/01 07:33:08;;;;;;;3.78;1.05;;;;;;;;;;6159937;23;20529;-91
2022/11/01 07:35:37;;;;;;;6.13;0.85;;;;;;;;;;6160964;23;20018;-91
2022/11/01 07:38:06;;;;;;;1.50;0.98;;;;;;;;;;6160465;23;20028;-92
2022/11/01 07:40:40;;;;;;;0.90;0.70;;;;;;;;;;6158803;23;20057;-91
2022/11/01 07:43:09;;;;;;;1.45;0.73;;;;;;;;;;6157450;23;20029;-91
2022/11/01 07:45:39;;;;;;;0.50;0.50;;;;;;;;;;6158228;23;20021;-91
2022/11/01 07:48:09;;;;;;;2.33;1.00;;;;;;;;;;6157328;23;20022;-91
2022/11/01 07:50:39;;;;;;;1.90;1.08;;;;;;;;;;6157527;23;20084;-93
2022/11/01 07:53:08;;;;;;;2.83;1.17;;;;;;;;;;6155998;23;20610;-90
2022/11/01 07:55:40;;;;;;;3.38;1.40;;;;;;;;;;6156009;23;20542;-90
2022/11/01 07:58:22;;;;;;;1.23;0.95;;;;;;;;;;6154771;23;20022;-92
2022/11/01 08:00:52;;;;;;;2.83;0.90;;;;;;;;;;6156922;23;20017;-92
2022/11/01 08:03:30;;;;;;;0.70;0.70;;;;;;;;;;6157929;23;20463;-92
2022/11/01 08:06:02;;;;;;;3.20;0.80;;;;;;;;;;6152766;23;20022;-87
2022/11/01 08:08:30;;;;;;;2.45;0.82;;;;;;;;;;6149306;23;20108;-87
2022/11/01 08:11:00;;;;;;;5.30;0.50;;;;;;;;;;6149684;23;20055;-88
2022/11/01 08:13:28;;;;;;;1.70;1.05;;;;;;;;;;6148727;23;20021;-86
2022/11/01 08:16:01;;;;;;;2.85;1.35;;;;;;;;;;6148855;23;20022;-88
2022/11/01 08:18:32;;;;;;;3.30;1.02;;;;;;;;;;6149101;23;20029;-88
2022/11/01 08:21:00;;;;;;;1.30;0.55;;;;;;;;;;6148968;23;20026;-90
2022/11/01 08:23:28;;;;;;;0.77;0.77;;;;;;;;;;6150709;23;20101;-89
2022/11/01 08:25:58;;;;;;;1.10;0.57;;;;;;;;;;6149345;23;20021;-92
2022/11/01 08:28:28;;;;;;;1.10;0.77;;;;;;;;;;6149591;23;20021;-90
2022/11/01 08:30:58;;;;;;;2.20;0.77;;;;;;;;;;6149013;23;20021;-87
2022/11/01 08:33:26;;;;;;;1.65;0.70;;;;;;;;;;6150132;23;20032;-88
2022/11/01 08:35:56;;;;;;;1.48;0.77;;;;;;;;;;6150036;23;20049;-88
2022/11/01 08:38:24;;;;;;;1.60;0.77;;;;;;;;;;6150460;23;20029;-87
2022/11/01 08:40:52;;;;;;;3.22;1.20;;;;;;;;;;6149251;23;20025;-90
2022/11/01 08:43:20;;;;;;;4.15;1.13;;;;;;;;;;6144990;23;20112;-90
2022/11/01 08:45:49;;;;;;;0.85;0.75;;;;;;;;;;6151621;23;20033;-93
2022/11/01 08:48:18;;;;;;;0.52;0.52;;;;;;;;;;6152066;23;20485;-91
2022/11/01 08:50:47;;;;;;;0.55;0.55;;;;;;;;;;6149977;23;20025;-93
2022/11/01 08:53:15;;;;;;;3.15;1.13;;;;;;;;;;6150025;23;20028;-90
2022/11/01 08:55:43;;;;;;;1.30;0.77;;;;;;;;;;6147978;23;20752;-90
2022/11/01 08:58:18;;;;;;;0.98;0.90;;;;;;;;;;6148890;23;20729;-90
2022/11/01 09:00:46;;;;;;;3.28;0.60;;;;;;;;;;6148146;23;20028;-89
2022/11/01 09:03:14;;;;;;;2.63;1.20;;;;;;;;;;6148869;23;20025;-88
2022/11/01 09:05:44;;;;;;;5.63;1.13;;;;;;;;;;6148449;23;20029;-90
2022/11/01 09:08:12;;;;;;;3.70;0.90;;;;;;;;;;6147888;23;20021;-87
2022/11/01 09:10:41;;;;;;;3.95;1.48;;;;;;;;;;6144608;23;20385;-89
2022/11/01 09:13:09;;;;;;;6.88;0.93;;;;;;;;;;6147489;23;20022;-89
2022/11/01 09:15:37;;;;;;;2.90;1.05;;;;;;;;;;6149199;23;20017;-91
2022/11/01 09:18:06;;;;;;;1.92;0.88;;;;;;;;;;6148983;23;20463;-90
2022/11/01 09:20:35;;;;;;;8.55;0.90;;;;;;;;;;6148777;23;20037;-94
2022/11/01 09:23:05;;;;;;;1.35;0.80;;;;;;;;;;6147972;23;20145;-90
2022/11/01 09:25:33;;;;;;;2.47;0.95;;;;;;;;;;6149510;23;20489;-89
2022/11/01 09:28:02;;;;;;;1.50;0.77;;;;;;;;;;6149069;23;20510;-90
2022/11/01 09:30:30;;;;;;;3.15;1.55;;;;;;;;;;6149451;23;20031;-89
2022/11/01 09:32:58;;;;;;;3.78;1.38;;;;;;;;;;6147001;23;20055;-90
2022/11/01 09:35:28;;;;;;;1.00;0.63;;;;;;;;;;6149257;23;20029;-89
2022/11/01 09:38:00;;;;;;;1.95;1.27;;;;;;;;;;6147957;23;20036;-91
2022/11/01 09:40:34;;;;;;;2.30;1.55;;;;;;;;;;6148197;23;20514;-91
2022/11/01 09:43:04;;;;;;;4.30;1.08;;;;;;;;;;6146776;23;20022;-89
2022/11/01 09:45:34;;;;;;;4.68;1.98;;;;;;;;;;6147134;23;20036;-92
2022/11/01 09:48:03;;;;;;;0.50;0.47;;;;;;;;;;6145940;23;20029;-90
2022/11/01 09:50:33;;;;;;;2.67;0.70;;;;;;;;;;6147786;23;20026;-90
2022/11/01 09:53:03;;;;;;;1.17;1.00;;;;;;;;;;6144492;23;20056;-91
2022/11/01 09:55:43;;;;;;;1.90;0.68;;;;;;;;;;6146588;23;20022;-93
2022/11/01 09:58:17;;;;;;;0.75;0.60;;;;;;;;;;6147510;23;20049;-90
2022/11/01 10:00:50;;;;;;;1.40;0.55;;;;;;;;;;6148724;23;20112;-91
2022/11/01 10:03:32;;;;;;;4.10;0.90;;;;;;;;;;6147672;23;20033;-90
2022/11/01 10:06:05;;;;;;;3.35;1.63;;;;;;;;;;6149845;23;20029;-91
2022/11/01 10:08:38;;;;;;;1.73;0.55;;;;;;;;;;6150259;23;20060;-90
2022/11/01 10:11:13;;;;;;;1.02;0.52;;;;;;;;;;6154403;23;20028;-90
2022/11/01 10:13:46;;;;;;;2.17;1.25;;;;;;;;;;6152146;23;20017;-91
2022/11/01 10:16:20;;;;;;;1.30;0.88;;;;;;;;;;6153230;23;20104;-91
2022/11/01 10:18:52;;;;;;;1.23;0.65;;;;;;;;;;6152862;23;20026;-92
2022/11/01 10:21:22;;;;;;;2.67;0.80;;;;;;;;;;6153798;23;20052;-93
2022/11/01 10:23:56;;;;;;;0.85;0.60;;;;;;;;;;6154711;23;20104;-95
2022/11/01 10:26:27;;;;;;;1.65;0.70;;;;;;;;;;6156404;23;20443;-93
2022/11/01 10:29:00;;;;;;;2.45;1.70;;;;;;;;;;6155384;23;20400;-94
2022/11/01 10:31:29;;;;;;;1.73;0.63;;;;;;;;;;6155932;23;20069;-93
2022/11/01 10:34:00;;;;;;;1.33;0.93;;;;;;;;;;6155597;23;20025;-89
2022/11/01 10:36:30;;;;;;;7.05;0.77;;;;;;;;;;6156195;23;20056;-94
2022/11/01 10:39:02;;;;;;;2.75;1.08;;;;;;;;;;6156820;23;20024;-96
2022/11/01 10:41:54;;;;;;;0.77;0.50;;;;;;;;;;6156234;23;20332;-93
2022/11/01 10:44:25;;;;;;;1.80;0.75;;;;;;;;;;6156463;23;20106;-93
2022/11/01 10:46:54;;;;;;;2.35;1.23;;;;;;;;;;6156634;23;20053;-94
2022/11/01 10:49:24;;;;;;;1.20;0.60;;;;;;;;;;6157020;23;20468;-93
2022/11/01 10:52:15;;;;;;;1.55;0.70;;;;;;;;;;6158186;23;20017;-95
2022/11/01 10:54:45;;;;;;;5.07;1.00;;;;;;;;;;6158898;23;20021;-93
2022/11/01 10:57:24;;;;;;;1.30;1.05;;;;;;;;;;6158696;23;20100;-94
2022/11/01 10:59:55;;;;;;;2.05;0.82;;;;;;;;;;6160094;23;20024;-93
2022/11/01 11:02:25;;;;;;;2.47;1.20;;;;;;;;;;6161520;23;20104;-94
2022/11/01 11:04:53;;;;;;;1.55;0.68;;;;;;;;;;6161210;23;20025;-90
2022/11/01 11:07:30;;;;;;;0.43;0.40;;;;;;;;;;6164736;23;20022;-93
2022/11/01 11:10:00;;;;;;;0.75;0.57;;;;;;;;;;6158139;23;20025;-93
2022/11/01 11:12:36;;;;;;;0.67;0.60;;;;;;;;;;6157818;23;20027;-93
2022/11/01 11:15:11;;;;;;;0.80;0.50;;;;;;;;;;6157828;23;20017;-93
2022/11/01 11:17:43;;;;;;;2.33;0.50;;;;;;;;;;6157066;23;20039;-94
2022/11/01 11:20:15;;;;;;;2.38;0.88;;;;;;;;;;6158735;23;20036;-94
2022/11/01 11:22:43;;;;;;;4.32;0.85;;;;;;;;;;6157894;23;20025;-93
2022/11/01 11:25:15;;;;;;;0.75;0.32;;;;;;;;;;6157324;23;20023;-92
2022/11/01 11:27:47;;;;;;;0.55;0.55;;;;;;;;;;6157257;23;20018;-96
2022/11/01 11:30:26;;;;;;;0.38;0.38;;;;;;;;;;6157465;23;20022;-96
2022/11/01 11:32:55;;;;;;;2.60;0.90;;;;;;;;;;6157643;23;20101;-94
2022/11/01 11:35:24;;;;;;;2.33;0.90;;;;;;;;;;6157775;23;20017;-91
2022/11/01 11:37:54;;;;;;;1.42;0.38;;;;;;;;;;6161147;23;20021;-91
2022/11/01 11:40:24;;;;;;;3.85;0.40;;;;;;;;;;6162360;23;20017;-96
2022/11/01 11:42:55;;;;;;;2.20;0.40;;;;;;;;;;6164065;23;20100;-94
2022/11/01 11:45:26;;;;;;;1.20;0.77;;;;;;;;;;6162741;23;20029;-93
2022/11/01 11:47:54;;;;;;;1.50;0.98;;;;;;;;;;6159338;23;20032;-95
2022/11/01 11:50:33;;;;;;;2.08;0.95;;;;;;;;;;6159656;23;20314;-96
2022/11/01 11:53:05;;;;;;;3.25;0.60;;;;;;;;;;6158471;23;20040;-92
2022/11/01 11:55:38;;;;;;;1.30;0.63;;;;;;;;;;6158395;23;20025;-94
2022/11/01 11:58:16;;;;;;;1.30;0.93;;;;;;;;;;6156926;23;20033;-91
2022/11/01 12:00:48;;;;;;;1.00;0.60;;;;;;;;;;6157044;23;20018;-93
2022/11/01 12:03:16;;;;;;;1.17;1.08;;;;;;;;;;6157502;23;20101;-94
2022/11/01 12:05:52;;;;;;;1.42;0.52;;;;;;;;;;6157451;23;20025;-96
2022/11/01 12:08:25;;;;;;;2.78;0.57;;;;;;;;;;6157579;23;20124;-92
2022/11/01 12:10:57;;;;;;;1.35;0.65;;;;;;;;;;6158085;23;20022;-91
2022/11/01 12:13:29;;;;;;;3.08;1.00;;;;;;;;;;6162017;23;20081;-91
2022/11/01 12:16:07;;;;;;;0.55;0.52;;;;;;;;;;6161513;23;20057;-96
2022/11/01 12:18:45;;;;;;;1.92;0.50;;;;;;;;;;6162951;23;20064;-96
2022/11/01 12:21:18;;;;;;;2.25;0.50;;;;;;;;;;6164951;23;20017;-94
2022/11/01 12:23:46;;;;;;;0.95;0.70;;;;;;;;;;6160979;23;20128;-94
2022/11/01 12:26:17;;;;;;;0.40;0.30;;;;;;;;;;6158850;23;20021;-94
2022/11/01 12:28:49;;;;;;;0.47;0.30;;;;;;;;;;6160240;23;20017;-95
2022/11/01 12:31:18;;;;;;;1.40;0.68;;;;;;;;;;6157793;23;20033;-93
2022/11/01 12:33:49;;;;;;;3.53;1.38;;;;;;;;;;6155441;23;20021;-93
2022/11/01 12:36:21;;;;;;;4.18;0.95;;;;;;;;;;6162724;23;20081;-96
2022/11/01 12:38:51;;;;;;;0.45;0.30;;;;;;;;;;6162680;23;20060;-95
2022/11/01 12:41:24;;;;;;;0.10;0.10;;;;;;;;;;6156695;23;20030;-96
2022/11/01 12:44:03;;;;;;;0.80;0.30;;;;;;;;;;6158749;23;20021;-93
2022/11/01 12:46:35;;;;;;;2.25;0.38;;;;;;;;;;6156437;23;20021;-92
2022/11/01 12:49:06;;;;;;;2.42;0.65;;;;;;;;;;6157448;23;20018;-93
2022/11/01 12:51:37;;;;;;;0.10;0.10;;;;;;;;;;6158239;23;20025;-94
2022/11/01 12:54:08;;;;;;;0.60;0.30;;;;;;;;;;6160398;23;20021;-94
2022/11/01 12:56:36;;;;;;;0.40;0.40;;;;;;;;;;6157924;23;20125;-95
2022/11/01 12:59:09;;;;;;;0.75;0.30;;;;;;;;;;6156788;23;20017;-96
2022/11/01 13:01:41;;;;;;;0.50;0.30;;;;;;;;;;6156114;23;20045;-93
2022/11/01 13:04:17;;;;;;;0.20;0.20;;;;;;;;;;6154814;23;20462;-93
2022/11/01 13:07:03;;;;;;;0.35;0.35;;;;;;;;;;6156341;23;20101;-96
2022/11/01 13:09:34;;;;;;;1.08;0.40;;;;;;;;;;6155592;23;20459;-93
2022/11/01 13:12:10;;;;;;;0.35;0.35;;;;;;;;;;6153374;23;20036;-90
2022/11/01 13:14:54;;;;;;;0.32;0.22;;;;;;;;;;6155077;23;20018;-92
2022/11/01 13:17:24;;;;;;;1.73;0.60;;;;;;;;;;6154484;23;20021;-93
2022/11/01 13:19:55;;;;;;;0.57;0.50;;;;;;;;;;6156050;23;20096;-90
2022/11/01 13:22:28;;;;;;;1.70;0.43;;;;;;;;;;6154811;23;20021;-95
2022/11/01 13:25:00;;;;;;;2.33;0.30;;;;;;;;;;6156011;23;20442;-92
2022/11/01 13:27:33;;;;;;;2.30;0.80;;;;;;;;;;6155496;23;20032;-88
2022/11/01 13:30:05;;;;;;;0.20;0.20;;;;;;;;;;6155705;23;20028;-91
2022/11/01 13:32:37;;;;;;;0.63;0.40;;;;;;;;;;6153933;23;20548;-93
2022/11/01 13:35:24;;;;;;;0.55;0.35;;;;;;;;;;6155306;23;20032;-94
2022/11/01 13:37:56;;;;;;;1.52;0.60;;;;;;;;;;6154118;23;20029;-93
2022/11/01 13:40:30;;;;;;;0.50;0.40;;;;;;;;;;6154270;23;20100;-94
2022/11/01 13:43:03;;;;;;;7.63;0.45;;;;;;;;;;6153433;23;20412;-94
2022/11/01 13:45:44;;;;;;;3.28;0.88;;;;;;;;;;6154510;23;20028;-94
2022/11/01 13:48:22;;;;;;;1.85;0.50;;;;;;;;;;6154123;23;20451;-90
2022/11/01 13:50:59;;;;;;;0.85;0.40;;;;;;;;;;6152616;23;20104;-93
2022/11/01 13:53:31;;;;;;;2.85;0.75;;;;;;;;;;6154181;23;20047;-91
2022/11/01 13:56:02;;;;;;;0.55;0.40;;;;;;;;;;6153824;23;20018;-90
2022/11/01 13:58:31;;;;;;;1.05;0.50;;;;;;;;;;6153748;23;20025;-92
2022/11/01 14:01:24;;;;;;;0.30;0.25;;;;;;;;;;6152981;23;20096;-94
2022/11/01 14:04:07;;;;;;;0.68;0.40;;;;;;;;;;6154827;23;20025;-95
2022/11/01 14:06:36;;;;;;;0.85;0.30;;;;;;;;;;6154252;23;20017;-89
2022/11/01 14:09:29;;;;;;;4.55;0.38;;;;;;;;;;6153937;23;20475;-93
2022/11/01 14:12:10;;;;;;;0.43;0.30;;;;;;;;;;6152829;23;20021;-95
2022/11/01 14:14:51;;;;;;;0.65;0.47;;;;;;;;;;6153504;23;20053;-95
2022/11/01 14:17:51;;;;;;;1.15;1.00;;;;;;;;;;6153182;23;20033;-94
2022/11/01 14:20:37;;;;;;;0.55;0.45;;;;;;;;;;6153762;23;20072;-96
2022/11/01 14:23:20;;;;;;;0.47;0.40;;;;;;;;;;6153657;23;20033;-92
2022/11/01 14:25:48;;;;;;;1.10;0.60;;;;;;;;;;6152684;23;20060;-92
2022/11/01 14:28:23;;;;;;;0.20;0.20;;;;;;;;;;6153661;23;20289;-92
2022/11/01 14:30:52;;;;;;;2.28;0.73;;;;;;;;;;6152561;23;20032;-92
2022/11/01 14:33:24;;;;;;;2.97;0.70;;;;;;;;;;6154136;23;20140;-94
2022/11/01 14:35:55;;;;;;;0.73;0.43;;;;;;;;;;6153876;23;20032;-92
2022/11/01 14:38:27;;;;;;;0.20;0.20;;;;;;;;;;6155641;23;20022;-95
2022/11/01 14:40:59;;;;;;;0.10;0.10;;;;;;;;;;6154313;23;20053;-93
2022/11/01 14:43:30;;;;;;;1.25;0.50;;;;;;;;;;6153200;23;20022;-92
2022/11/01 14:46:00;;;;;;;0.90;0.17;;;;;;;;;;6153707;23;20033;-92
2022/11/01 14:48:31;;;;;;;1.88;0.60;;;;;;;;;;6153938;23;20022;-91
2022/11/01 14:51:02;;;;;;;3.03;1.15;;;;;;;;;;6152863;23;20375;-94
2022/11/01 14:53:32;;;;;;;1.33;0.65;;;;;;;;;;6155560;23;20025;-93
2022/11/01 14:56:13;;;;;;;1.17;1.02;;;;;;;;;;6154849;23;20021;-91
2022/11/01 14:58:41;;;;;;;0.85;0.68;;;;;;;;;;6155508;23;20328;-93
2022/11/01 15:01:13;;;;;;;1.23;0.40;;;;;;;;;;6154819;23;20028;-93
2022/11/01 15:03:53;;;;;;;0.68;0.20;;;;;;;;;;6155405;23;20025;-91
2022/11/01 15:06:26;;;;;;;0.30;0.20;;;;;;;;;;6154846;23;20432;-93
2022/11/01 15:08:57;;;;;;;2.35;0.45;;;;;;;;;;6155720;23;20022;-93
2022/11/01 15:11:27;;;;;;;0.75;0.75;;;;;;;;;;6154248;23;20025;-88
2022/11/01 15:13:56;;;;;;;0.45;0.32;;;;;;;;;;6154542;23;20017;-94
2022/11/01 15:16:28;;;;;;;0.98;0.50;;;;;;;;;;6155889;23;20022;-92